createdAt,value
2016-12-29T00:00:04.934Z,23
2016-12-29T00:00:45.524Z,22.98
2016-12-29T00:01:26.122Z,23
2016-12-29T00:02:06.712Z,22.94
2016-12-29T00:02:47.294Z,22.94
2016-12-29T00:03:27.886Z,22.94
2016-12-29T00:04:08.463Z,22.98
2016-12-29T00:04:49.048Z,22.97
2016-12-29T00:05:29.640Z,22.97
2016-12-29T00:06:10.223Z,22.9
2016-12-29T00:06:50.803Z,22.88
2016-12-29T00:07:31.387Z,22.92
2016-12-29T00:08:11.973Z,22.95
2016-12-29T00:08:52.555Z,23
2016-12-29T00:09:33.135Z,23.01
2016-12-29T00:10:13.718Z,22.97
2016-12-29T00:10:54.305Z,22.92
2016-12-29T00:11:34.888Z,22.92
2016-12-29T00:12:15.469Z,22.97
2016-12-29T00:12:56.041Z,22.88
2016-12-29T00:13:36.622Z,23.01
2016-12-29T00:14:17.198Z,22.88
2016-12-29T00:14:57.788Z,22.86
2016-12-29T00:15:38.366Z,22.94
2016-12-29T00:16:18.956Z,22.9
2016-12-29T00:16:59.538Z,22.9
2016-12-29T00:17:40.123Z,23
2016-12-29T00:18:20.712Z,22.91
2016-12-29T00:19:01.330Z,22.91
2016-12-29T00:19:41.886Z,22.94
2016-12-29T00:20:22.472Z,22.91
2016-12-29T00:21:03.059Z,22.91
2016-12-29T00:21:43.651Z,22.85
2016-12-29T00:22:24.236Z,22.85
2016-12-29T00:23:04.841Z,22.9
2016-12-29T00:23:45.437Z,22.85
2016-12-29T00:24:26.023Z,22.92
2016-12-29T00:25:06.619Z,22.98
2016-12-29T00:25:47.211Z,22.83
2016-12-29T00:26:27.792Z,22.94
2016-12-29T00:27:08.383Z,22.83
2016-12-29T00:27:48.964Z,22.92
2016-12-29T00:28:29.545Z,22.91
2016-12-29T00:29:10.144Z,22.9
2016-12-29T00:29:50.727Z,22.88
2016-12-29T00:30:31.315Z,22.91
2016-12-29T00:31:11.929Z,22.82
2016-12-29T00:31:52.502Z,22.8
2016-12-29T00:32:33.093Z,22.85
2016-12-29T00:33:13.677Z,22.85
2016-12-29T00:33:54.257Z,22.86
2016-12-29T00:34:34.877Z,22.85
2016-12-29T00:35:15.457Z,22.86
2016-12-29T00:35:56.047Z,22.85
2016-12-29T00:36:36.637Z,22.88
2016-12-29T00:37:17.222Z,22.94
2016-12-29T00:37:57.800Z,22.85
2016-12-29T00:38:38.386Z,22.83
2016-12-29T00:39:18.996Z,22.83
2016-12-29T00:39:59.580Z,22.85
2016-12-29T00:40:40.165Z,22.91
2016-12-29T00:41:20.742Z,22.86
2016-12-29T00:42:01.320Z,22.86
2016-12-29T00:42:41.897Z,22.83
2016-12-29T00:43:22.486Z,22.83
2016-12-29T00:44:03.079Z,22.86
2016-12-29T00:44:43.677Z,22.85
2016-12-29T00:45:24.265Z,22.86
2016-12-29T00:46:04.846Z,22.9
2016-12-29T00:46:45.453Z,22.83
2016-12-29T00:47:26.044Z,22.86
2016-12-29T00:48:06.636Z,22.86
2016-12-29T00:48:47.214Z,22.9
2016-12-29T00:49:27.806Z,22.9
2016-12-29T00:50:08.385Z,22.83
2016-12-29T00:50:48.980Z,22.91
2016-12-29T00:51:29.562Z,22.92
2016-12-29T00:52:10.161Z,22.86
2016-12-29T00:52:50.758Z,22.88
2016-12-29T00:53:31.348Z,22.91
2016-12-29T00:54:11.937Z,22.85
2016-12-29T00:54:52.535Z,22.85
2016-12-29T00:55:33.124Z,22.9
2016-12-29T00:56:13.709Z,22.86
2016-12-29T00:56:54.292Z,22.91
2016-12-29T00:57:34.879Z,22.88
2016-12-29T00:58:15.464Z,22.9
2016-12-29T00:58:56.044Z,22.86
2016-12-29T00:59:36.643Z,22.9
2016-12-29T01:00:17.234Z,22.94
2016-12-29T01:00:57.828Z,22.83
2016-12-29T01:01:38.420Z,22.85
2016-12-29T01:02:19.005Z,22.85
2016-12-29T01:02:59.605Z,22.9
2016-12-29T01:03:40.181Z,22.83
2016-12-29T01:04:20.766Z,22.85
2016-12-29T01:05:01.356Z,22.85
2016-12-29T01:05:41.938Z,22.9
2016-12-29T01:06:22.519Z,22.86
2016-12-29T01:07:03.104Z,22.85
2016-12-29T01:07:43.685Z,22.88
2016-12-29T01:08:24.278Z,22.85
2016-12-29T01:09:04.868Z,22.85
2016-12-29T01:09:45.448Z,22.82
2016-12-29T01:10:26.029Z,22.88
2016-12-29T01:11:06.622Z,22.85
2016-12-29T01:11:47.208Z,22.86
2016-12-29T01:12:27.792Z,22.88
2016-12-29T01:13:08.407Z,22.9
2016-12-29T01:13:48.992Z,22.79
2016-12-29T01:14:29.569Z,22.9
2016-12-29T01:15:10.167Z,22.85
2016-12-29T01:15:50.742Z,22.85
2016-12-29T01:16:31.328Z,22.83
2016-12-29T01:17:11.911Z,22.88
2016-12-29T01:17:52.509Z,22.88
2016-12-29T01:18:33.094Z,22.91
2016-12-29T01:19:13.689Z,22.86
2016-12-29T01:19:54.263Z,22.83
2016-12-29T01:20:34.853Z,22.83
2016-12-29T01:21:15.429Z,22.88
2016-12-29T01:21:56.013Z,22.86
2016-12-29T01:22:36.592Z,22.83
2016-12-29T01:23:17.172Z,22.85
2016-12-29T01:23:57.758Z,22.85
2016-12-29T01:24:38.346Z,22.85
2016-12-29T01:25:18.937Z,22.82
2016-12-29T01:25:59.526Z,22.82
2016-12-29T01:26:40.117Z,22.91
2016-12-29T01:27:20.694Z,22.88
2016-12-29T01:28:01.279Z,22.9
2016-12-29T01:28:41.855Z,22.86
2016-12-29T01:29:22.438Z,22.83
2016-12-29T01:30:03.033Z,22.82
2016-12-29T01:30:43.621Z,22.82
2016-12-29T01:31:24.225Z,22.77
2016-12-29T01:32:04.843Z,22.86
2016-12-29T01:32:45.433Z,22.83
2016-12-29T01:33:26.030Z,22.83
2016-12-29T01:34:06.632Z,22.77
2016-12-29T01:34:47.231Z,22.77
2016-12-29T01:35:27.810Z,22.88
2016-12-29T01:36:08.390Z,22.88
2016-12-29T01:36:49.002Z,22.85
2016-12-29T01:37:29.602Z,22.8
2016-12-29T01:38:10.197Z,22.86
2016-12-29T01:38:50.786Z,22.86
2016-12-29T01:39:31.391Z,22.76
2016-12-29T01:40:11.979Z,22.83
2016-12-29T01:40:52.589Z,22.86
2016-12-29T01:41:33.166Z,22.79
2016-12-29T01:42:13.754Z,22.86
2016-12-29T01:42:54.349Z,22.77
2016-12-29T01:43:34.919Z,22.83
2016-12-29T01:44:15.511Z,22.8
2016-12-29T01:44:56.087Z,22.86
2016-12-29T01:45:36.667Z,22.82
2016-12-29T01:46:17.260Z,22.83
2016-12-29T01:46:57.841Z,22.85
2016-12-29T01:47:38.417Z,22.82
2016-12-29T01:48:19.012Z,22.8
2016-12-29T01:48:59.593Z,22.82
2016-12-29T01:49:40.188Z,22.79
2016-12-29T01:50:20.779Z,22.75
2016-12-29T01:51:01.364Z,22.77
2016-12-29T01:51:41.965Z,22.83
2016-12-29T01:52:22.547Z,22.82
2016-12-29T01:53:03.137Z,22.83
2016-12-29T01:53:43.738Z,22.79
2016-12-29T01:54:24.340Z,22.8
2016-12-29T01:55:04.944Z,22.76
2016-12-29T01:55:45.554Z,22.8
2016-12-29T01:56:26.131Z,22.77
2016-12-29T01:57:06.732Z,22.79
2016-12-29T01:57:47.305Z,22.79
2016-12-29T01:58:27.887Z,22.82
2016-12-29T01:59:08.488Z,22.76
2016-12-29T01:59:49.076Z,22.79
2016-12-29T02:00:29.657Z,22.79
2016-12-29T02:01:10.244Z,22.73
2016-12-29T02:01:50.837Z,22.79
2016-12-29T02:02:31.426Z,22.85
2016-12-29T02:03:12.016Z,22.8
2016-12-29T02:03:52.598Z,22.79
2016-12-29T02:04:33.184Z,22.79
2016-12-29T02:05:13.764Z,22.79
2016-12-29T02:05:54.362Z,22.77
2016-12-29T02:06:34.942Z,22.76
2016-12-29T02:07:15.523Z,22.75
2016-12-29T02:07:56.125Z,22.77
2016-12-29T02:08:36.720Z,22.77
2016-12-29T02:09:17.310Z,22.85
2016-12-29T02:09:57.907Z,22.8
2016-12-29T02:10:38.485Z,22.76
2016-12-29T02:11:19.071Z,22.77
2016-12-29T02:11:59.664Z,22.75
2016-12-29T02:12:40.258Z,22.77
2016-12-29T02:13:20.848Z,22.76
2016-12-29T02:14:01.454Z,22.72
2016-12-29T02:14:42.023Z,22.79
2016-12-29T02:15:22.600Z,22.76
2016-12-29T02:16:03.184Z,22.75
2016-12-29T02:16:43.775Z,22.79
2016-12-29T02:17:24.369Z,22.73
2016-12-29T02:18:04.946Z,22.76
2016-12-29T02:18:45.551Z,22.73
2016-12-29T02:19:26.135Z,22.8
2016-12-29T02:20:06.721Z,22.77
2016-12-29T02:20:47.306Z,22.76
2016-12-29T02:21:27.897Z,22.67
2016-12-29T02:22:08.480Z,22.79
2016-12-29T02:22:49.064Z,22.75
2016-12-29T02:23:29.650Z,22.76
2016-12-29T02:24:10.232Z,22.77
2016-12-29T02:24:50.829Z,22.77
2016-12-29T02:25:31.414Z,22.75
2016-12-29T02:26:12.008Z,22.79
2016-12-29T02:26:52.592Z,22.76
2016-12-29T02:27:33.164Z,22.85
2016-12-29T02:28:13.746Z,22.77
2016-12-29T02:28:54.325Z,22.79
2016-12-29T02:29:34.910Z,22.83
2016-12-29T02:30:15.493Z,22.76
2016-12-29T02:30:56.085Z,22.79
2016-12-29T02:31:36.679Z,22.76
2016-12-29T02:32:17.264Z,22.75
2016-12-29T02:32:57.853Z,22.79
2016-12-29T02:33:38.445Z,22.88
2016-12-29T02:34:19.041Z,22.79
2016-12-29T02:34:59.639Z,22.82
2016-12-29T02:35:40.224Z,22.8
2016-12-29T02:36:20.810Z,22.77
2016-12-29T02:37:01.396Z,22.73
2016-12-29T02:37:41.979Z,22.82
2016-12-29T02:38:22.562Z,22.79
2016-12-29T02:39:03.168Z,22.7
2016-12-29T02:39:43.766Z,22.79
2016-12-29T02:40:24.348Z,22.79
2016-12-29T02:41:04.976Z,22.72
2016-12-29T02:41:45.578Z,22.85
2016-12-29T02:42:26.159Z,22.85
2016-12-29T02:43:06.764Z,22.79
2016-12-29T02:43:47.377Z,22.85
2016-12-29T02:44:27.963Z,22.77
2016-12-29T02:45:08.567Z,22.8
2016-12-29T02:45:49.164Z,22.67
2016-12-29T02:46:29.759Z,22.77
2016-12-29T02:47:10.343Z,22.79
2016-12-29T02:47:50.934Z,22.82
2016-12-29T02:48:31.546Z,22.76
2016-12-29T02:49:12.137Z,22.7
2016-12-29T02:49:52.726Z,22.7
2016-12-29T02:50:33.324Z,22.77
2016-12-29T02:51:13.945Z,22.68
2016-12-29T02:51:54.545Z,22.72
2016-12-29T02:52:35.158Z,22.7
2016-12-29T02:53:15.744Z,22.77
2016-12-29T02:53:56.356Z,22.73
2016-12-29T02:54:36.914Z,22.82
2016-12-29T02:55:17.509Z,22.72
2016-12-29T02:55:58.087Z,22.75
2016-12-29T02:56:38.668Z,22.79
2016-12-29T02:57:19.261Z,22.67
2016-12-29T02:57:59.840Z,22.79
2016-12-29T02:58:40.420Z,22.72
2016-12-29T02:59:21.009Z,22.68
2016-12-29T03:00:01.602Z,22.73
2016-12-29T03:00:42.173Z,22.72
2016-12-29T03:01:22.770Z,22.68
2016-12-29T03:02:03.359Z,22.73
2016-12-29T03:02:43.987Z,22.64
2016-12-29T03:03:24.571Z,22.72
2016-12-29T03:04:05.175Z,22.73
2016-12-29T03:04:45.773Z,22.67
2016-12-29T03:05:26.351Z,22.67
2016-12-29T03:06:06.936Z,22.65
2016-12-29T03:06:47.526Z,22.75
2016-12-29T03:07:28.104Z,22.68
2016-12-29T03:08:08.717Z,22.7
2016-12-29T03:08:49.314Z,22.75
2016-12-29T03:09:29.914Z,22.72
2016-12-29T03:10:10.547Z,22.68
2016-12-29T03:10:51.140Z,22.68
2016-12-29T03:11:31.756Z,22.62
2016-12-29T03:12:12.339Z,22.73
2016-12-29T03:12:52.947Z,22.72
2016-12-29T03:13:33.551Z,22.75
2016-12-29T03:14:14.144Z,22.72
2016-12-29T03:14:54.729Z,22.67
2016-12-29T03:15:35.329Z,22.72
2016-12-29T03:16:15.957Z,22.72
2016-12-29T03:16:56.550Z,22.62
2016-12-29T03:17:37.163Z,22.68
2016-12-29T03:18:17.769Z,22.7
2016-12-29T03:18:58.358Z,22.67
2016-12-29T03:19:38.954Z,22.72
2016-12-29T03:20:19.562Z,22.67
2016-12-29T03:21:00.177Z,22.67
2016-12-29T03:21:40.771Z,22.68
2016-12-29T03:22:21.356Z,22.72
2016-12-29T03:23:01.970Z,22.73
2016-12-29T03:23:42.565Z,22.68
2016-12-29T03:24:23.170Z,22.64
2016-12-29T03:25:03.751Z,22.7
2016-12-29T03:25:44.333Z,22.68
2016-12-29T03:26:24.928Z,22.68
2016-12-29T03:27:05.526Z,22.7
2016-12-29T03:27:46.130Z,22.67
2016-12-29T03:28:26.745Z,22.6
2016-12-29T03:29:07.333Z,22.7
2016-12-29T03:29:47.929Z,22.62
2016-12-29T03:30:28.518Z,22.72
2016-12-29T03:31:09.115Z,22.67
2016-12-29T03:31:49.698Z,22.7
2016-12-29T03:32:30.281Z,22.61
2016-12-29T03:33:10.861Z,22.72
2016-12-29T03:33:51.437Z,22.73
2016-12-29T03:34:32.026Z,22.7
2016-12-29T03:35:12.639Z,22.73
2016-12-29T03:35:53.243Z,22.72
2016-12-29T03:36:33.831Z,22.64
2016-12-29T03:37:14.410Z,22.7
2016-12-29T03:37:54.988Z,22.67
2016-12-29T03:38:35.564Z,22.72
2016-12-29T03:39:16.156Z,22.64
2016-12-29T03:39:56.741Z,22.7
2016-12-29T03:40:37.331Z,22.68
2016-12-29T03:41:17.911Z,22.68
2016-12-29T03:41:58.498Z,22.65
2016-12-29T03:42:39.098Z,22.7
2016-12-29T03:43:19.681Z,22.65
2016-12-29T03:44:00.267Z,22.68
2016-12-29T03:44:40.855Z,22.68
2016-12-29T03:45:21.428Z,22.65
2016-12-29T03:46:02.005Z,22.72
2016-12-29T03:46:42.597Z,22.68
2016-12-29T03:47:23.165Z,22.6
2016-12-29T03:48:03.765Z,22.7
2016-12-29T03:48:44.362Z,22.61
2016-12-29T03:49:24.972Z,22.7
2016-12-29T03:50:05.555Z,22.72
2016-12-29T03:50:46.752Z,22.7
2016-12-29T03:51:27.342Z,22.62
2016-12-29T03:52:07.931Z,22.67
2016-12-29T03:52:48.515Z,22.68
2016-12-29T03:53:29.097Z,22.65
2016-12-29T03:54:09.684Z,22.64
2016-12-29T03:54:50.269Z,22.61
2016-12-29T03:55:30.849Z,22.67
2016-12-29T03:56:11.425Z,22.55
2016-12-29T03:56:52.009Z,22.68
2016-12-29T03:57:32.593Z,22.6
2016-12-29T03:58:13.172Z,22.67
2016-12-29T03:58:53.749Z,22.64
2016-12-29T03:59:34.332Z,22.67
2016-12-29T04:00:14.920Z,22.61
2016-12-29T04:00:55.507Z,22.65
2016-12-29T04:01:36.083Z,22.68
2016-12-29T04:02:16.663Z,22.64
2016-12-29T04:02:57.255Z,22.72
2016-12-29T04:03:37.838Z,22.6
2016-12-29T04:04:18.414Z,22.73
2016-12-29T04:04:59.001Z,22.65
2016-12-29T04:05:39.596Z,22.65
2016-12-29T04:06:20.177Z,22.55
2016-12-29T04:07:00.757Z,22.57
2016-12-29T04:07:41.348Z,22.62
2016-12-29T04:08:21.929Z,22.67
2016-12-29T04:09:02.519Z,22.62
2016-12-29T04:09:43.106Z,22.55
2016-12-29T04:10:23.684Z,22.64
2016-12-29T04:11:04.256Z,22.58
2016-12-29T04:11:44.837Z,22.58
2016-12-29T04:12:25.422Z,22.55
2016-12-29T04:13:06.030Z,22.64
2016-12-29T04:13:46.638Z,22.64
2016-12-29T04:14:27.225Z,22.64
2016-12-29T04:15:07.823Z,22.55
2016-12-29T04:15:48.411Z,22.62
2016-12-29T04:16:28.990Z,22.61
2016-12-29T04:17:09.591Z,22.62
2016-12-29T04:17:50.186Z,22.62
2016-12-29T04:18:30.772Z,22.57
2016-12-29T04:19:11.349Z,22.55
2016-12-29T04:19:51.933Z,22.54
2016-12-29T04:20:32.520Z,22.62
2016-12-29T04:21:13.110Z,22.62
2016-12-29T04:21:53.704Z,22.65
2016-12-29T04:22:34.301Z,22.57
2016-12-29T04:23:14.875Z,22.64
2016-12-29T04:23:55.479Z,22.62
2016-12-29T04:24:36.060Z,22.54
2016-12-29T04:25:16.656Z,22.62
2016-12-29T04:25:57.247Z,22.55
2016-12-29T04:26:37.840Z,22.54
2016-12-29T04:27:18.431Z,22.55
2016-12-29T04:27:59.020Z,22.62
2016-12-29T04:28:39.611Z,22.62
2016-12-29T04:29:20.206Z,22.6
2016-12-29T04:30:00.789Z,22.57
2016-12-29T04:30:41.371Z,22.64
2016-12-29T04:31:21.948Z,22.64
2016-12-29T04:32:02.543Z,22.57
2016-12-29T04:32:43.141Z,22.54
2016-12-29T04:33:23.721Z,22.62
2016-12-29T04:34:04.319Z,22.54
2016-12-29T04:34:44.899Z,22.67
2016-12-29T04:35:25.487Z,22.64
2016-12-29T04:36:06.081Z,22.52
2016-12-29T04:36:46.665Z,22.58
2016-12-29T04:37:27.243Z,22.52
2016-12-29T04:38:07.847Z,22.6
2016-12-29T04:38:48.436Z,22.6
2016-12-29T04:39:29.017Z,22.64
2016-12-29T04:40:09.605Z,22.65
2016-12-29T04:40:50.187Z,22.58
2016-12-29T04:41:30.786Z,22.58
2016-12-29T04:42:11.372Z,22.65
2016-12-29T04:42:51.968Z,22.57
2016-12-29T04:43:32.565Z,22.65
2016-12-29T04:44:13.149Z,22.68
2016-12-29T04:44:53.735Z,22.6
2016-12-29T04:45:34.332Z,22.64
2016-12-29T04:46:14.912Z,22.62
2016-12-29T04:46:55.494Z,22.62
2016-12-29T04:47:36.096Z,22.61
2016-12-29T04:48:16.673Z,22.61
2016-12-29T04:48:57.269Z,22.65
2016-12-29T04:49:37.857Z,22.57
2016-12-29T04:50:18.436Z,22.6
2016-12-29T04:50:59.035Z,22.58
2016-12-29T04:51:39.626Z,22.55
2016-12-29T04:52:20.207Z,22.57
2016-12-29T04:53:00.796Z,22.58
2016-12-29T04:53:41.375Z,22.54
2016-12-29T04:54:21.962Z,22.58
2016-12-29T04:55:02.553Z,22.62
2016-12-29T04:55:43.152Z,22.61
2016-12-29T04:56:23.745Z,22.55
2016-12-29T04:57:04.339Z,22.62
2016-12-29T04:57:44.932Z,22.6
2016-12-29T04:58:25.524Z,22.54
2016-12-29T04:59:06.108Z,22.55
2016-12-29T04:59:46.714Z,22.55
2016-12-29T05:00:27.325Z,22.55
2016-12-29T05:01:07.918Z,22.64
2016-12-29T05:01:48.499Z,22.62
2016-12-29T05:02:29.079Z,22.6
2016-12-29T05:03:09.668Z,22.58
2016-12-29T05:03:50.266Z,22.49
2016-12-29T05:04:30.846Z,22.62
2016-12-29T05:05:11.440Z,22.64
2016-12-29T05:05:52.004Z,22.65
2016-12-29T05:06:32.609Z,22.6
2016-12-29T05:07:13.192Z,22.51
2016-12-29T05:07:53.791Z,22.54
2016-12-29T05:08:34.393Z,22.58
2016-12-29T05:09:14.975Z,22.62
2016-12-29T05:09:55.551Z,22.55
2016-12-29T05:10:36.131Z,22.6
2016-12-29T05:11:16.722Z,22.61
2016-12-29T05:11:57.296Z,22.55
2016-12-29T05:12:37.901Z,22.54
2016-12-29T05:13:18.501Z,22.58
2016-12-29T05:13:59.094Z,22.58
2016-12-29T05:14:39.688Z,22.58
2016-12-29T05:15:20.273Z,22.58
2016-12-29T05:16:00.861Z,22.62
2016-12-29T05:16:41.455Z,22.6
2016-12-29T05:17:22.077Z,22.54
2016-12-29T05:18:02.665Z,22.54
2016-12-29T05:18:43.231Z,22.62
2016-12-29T05:19:23.827Z,22.58
2016-12-29T05:20:04.412Z,22.58
2016-12-29T05:20:45.005Z,22.55
2016-12-29T05:21:25.617Z,22.52
2016-12-29T05:22:06.198Z,22.54
2016-12-29T05:22:46.780Z,22.61
2016-12-29T05:23:27.379Z,22.54
2016-12-29T05:24:07.951Z,22.51
2016-12-29T05:24:48.539Z,22.55
2016-12-29T05:25:29.125Z,22.61
2016-12-29T05:26:09.729Z,22.52
2016-12-29T05:26:50.311Z,22.54
2016-12-29T05:27:30.892Z,22.62
2016-12-29T05:28:11.475Z,22.55
2016-12-29T05:28:52.061Z,22.55
2016-12-29T05:29:32.640Z,22.6
2016-12-29T05:30:13.222Z,22.52
2016-12-29T05:30:53.811Z,22.51
2016-12-29T05:31:34.387Z,22.61
2016-12-29T05:32:14.978Z,22.61
2016-12-29T05:32:55.572Z,22.54
2016-12-29T05:33:36.160Z,22.57
2016-12-29T05:34:16.746Z,22.6
2016-12-29T05:34:57.331Z,22.52
2016-12-29T05:35:37.913Z,22.6
2016-12-29T05:36:18.502Z,22.52
2016-12-29T05:36:59.082Z,22.61
2016-12-29T05:37:39.670Z,22.6
2016-12-29T05:38:20.260Z,22.55
2016-12-29T05:39:00.866Z,22.57
2016-12-29T05:39:41.444Z,22.57
2016-12-29T05:40:22.021Z,22.6
2016-12-29T05:41:02.608Z,22.57
2016-12-29T05:41:43.193Z,22.62
2016-12-29T05:42:23.789Z,22.61
2016-12-29T05:43:04.370Z,22.57
2016-12-29T05:43:44.964Z,22.51
2016-12-29T05:44:25.541Z,22.58
2016-12-29T05:45:06.128Z,22.54
2016-12-29T05:45:46.723Z,22.55
2016-12-29T05:46:27.299Z,22.51
2016-12-29T05:47:07.891Z,22.52
2016-12-29T05:47:48.468Z,22.52
2016-12-29T05:48:29.065Z,22.55
2016-12-29T05:49:09.656Z,22.52
2016-12-29T05:49:50.231Z,22.52
2016-12-29T05:50:30.823Z,22.49
2016-12-29T05:51:11.412Z,22.54
2016-12-29T05:51:52.008Z,22.54
2016-12-29T05:52:32.586Z,22.47
2016-12-29T05:53:13.161Z,22.55
2016-12-29T05:53:53.749Z,22.55
2016-12-29T05:54:34.329Z,22.49
2016-12-29T05:55:14.926Z,22.51
2016-12-29T05:55:55.530Z,22.52
2016-12-29T05:56:36.123Z,22.51
2016-12-29T05:57:16.699Z,22.54
2016-12-29T05:57:57.280Z,22.49
2016-12-29T05:58:37.858Z,22.47
2016-12-29T05:59:18.451Z,22.52
2016-12-29T05:59:59.038Z,22.55
2016-12-29T06:00:39.624Z,22.54
2016-12-29T06:01:20.229Z,22.52
2016-12-29T06:02:00.809Z,22.51
2016-12-29T06:02:41.401Z,22.54
2016-12-29T06:03:21.980Z,22.52
2016-12-29T06:04:02.561Z,22.55
2016-12-29T06:04:43.140Z,22.57
2016-12-29T06:05:23.727Z,22.52
2016-12-29T06:06:04.313Z,22.49
2016-12-29T06:06:44.892Z,22.57
2016-12-29T06:07:25.481Z,22.57
2016-12-29T06:08:06.073Z,22.54
2016-12-29T06:08:46.668Z,22.54
2016-12-29T06:09:27.254Z,22.58
2016-12-29T06:10:07.865Z,22.51
2016-12-29T06:10:48.443Z,22.52
2016-12-29T06:11:29.030Z,22.52
2016-12-29T06:12:09.625Z,22.51
2016-12-29T06:12:50.224Z,22.51
2016-12-29T06:13:30.828Z,22.51
2016-12-29T06:14:11.422Z,22.52
2016-12-29T06:14:52.014Z,22.51
2016-12-29T06:15:32.601Z,22.46
2016-12-29T06:16:13.195Z,22.45
2016-12-29T06:16:53.789Z,22.52
2016-12-29T06:17:34.382Z,22.49
2016-12-29T06:18:14.968Z,22.51
2016-12-29T06:18:55.573Z,22.51
2016-12-29T06:19:36.164Z,22.52
2016-12-29T06:20:16.749Z,22.54
2016-12-29T06:20:57.340Z,22.57
2016-12-29T06:21:37.926Z,22.51
2016-12-29T06:22:18.522Z,22.43
2016-12-29T06:22:59.105Z,22.55
2016-12-29T06:23:39.696Z,22.52
2016-12-29T06:24:20.305Z,22.47
2016-12-29T06:25:00.907Z,22.54
2016-12-29T06:25:41.516Z,22.52
2016-12-29T06:26:22.112Z,22.51
2016-12-29T06:27:02.686Z,22.55
2016-12-29T06:27:43.274Z,22.51
2016-12-29T06:28:23.859Z,22.55
2016-12-29T06:29:04.450Z,22.55
2016-12-29T06:29:45.046Z,22.52
2016-12-29T06:30:25.636Z,22.6
2016-12-29T06:31:06.230Z,22.47
2016-12-29T06:31:46.823Z,22.51
2016-12-29T06:32:27.411Z,22.47
2016-12-29T06:33:07.986Z,22.55
2016-12-29T06:33:48.583Z,22.52
2016-12-29T06:34:29.170Z,22.47
2016-12-29T06:35:09.742Z,22.47
2016-12-29T06:35:50.322Z,22.54
2016-12-29T06:36:30.891Z,22.49
2016-12-29T06:37:11.497Z,22.47
2016-12-29T06:37:52.095Z,22.52
2016-12-29T06:38:32.680Z,22.49
2016-12-29T06:39:13.267Z,22.54
2016-12-29T06:39:53.849Z,22.54
2016-12-29T06:40:34.451Z,22.51
2016-12-29T06:41:15.025Z,22.49
2016-12-29T06:41:55.604Z,22.52
2016-12-29T06:42:36.194Z,22.52
2016-12-29T06:43:16.776Z,22.51
2016-12-29T06:43:57.359Z,22.49
2016-12-29T06:44:37.980Z,22.51
2016-12-29T06:45:18.593Z,22.51
2016-12-29T06:45:59.170Z,22.46
2016-12-29T06:46:39.759Z,22.51
2016-12-29T06:47:20.341Z,22.49
2016-12-29T06:48:00.932Z,22.45
2016-12-29T06:48:41.515Z,22.52
2016-12-29T06:49:22.101Z,22.58
2016-12-29T06:50:02.684Z,22.49
2016-12-29T06:50:43.268Z,22.49
2016-12-29T06:51:23.865Z,22.51
2016-12-29T06:52:04.490Z,22.51
2016-12-29T06:52:45.083Z,22.46
2016-12-29T06:53:25.676Z,22.45
2016-12-29T06:54:06.256Z,22.46
2016-12-29T06:54:46.842Z,22.51
2016-12-29T06:55:27.459Z,22.43
2016-12-29T06:56:08.057Z,22.46
2016-12-29T06:56:48.641Z,22.43
2016-12-29T06:57:29.230Z,22.42
2016-12-29T06:58:09.827Z,22.4
2016-12-29T06:58:50.429Z,22.4
2016-12-29T06:59:31.021Z,22.46
2016-12-29T07:00:11.607Z,22.42
2016-12-29T07:00:52.202Z,22.51
2016-12-29T07:01:32.795Z,22.42
2016-12-29T07:02:13.373Z,22.49
2016-12-29T07:02:54.010Z,22.51
2016-12-29T07:03:34.588Z,22.47
2016-12-29T07:04:15.169Z,22.51
2016-12-29T07:04:55.760Z,22.4
2016-12-29T07:05:36.353Z,22.47
2016-12-29T07:06:16.941Z,22.4
2016-12-29T07:06:57.523Z,22.43
2016-12-29T07:07:38.106Z,22.39
2016-12-29T07:08:18.696Z,22.51
2016-12-29T07:08:59.268Z,22.49
2016-12-29T07:09:39.861Z,22.37
2016-12-29T07:10:20.451Z,22.4
2016-12-29T07:11:01.038Z,22.4
2016-12-29T07:11:41.629Z,22.4
2016-12-29T07:12:22.212Z,22.4
2016-12-29T07:13:02.804Z,22.39
2016-12-29T07:13:43.387Z,22.45
2016-12-29T07:14:23.980Z,22.46
2016-12-29T07:15:04.561Z,22.4
2016-12-29T07:15:45.155Z,22.45
2016-12-29T07:16:25.743Z,22.4
2016-12-29T07:17:06.331Z,22.43
2016-12-29T07:17:46.920Z,22.42
2016-12-29T07:18:27.515Z,22.42
2016-12-29T07:19:08.092Z,22.4
2016-12-29T07:19:48.676Z,22.4
2016-12-29T07:20:29.263Z,22.46
2016-12-29T07:21:09.854Z,22.42
2016-12-29T07:21:50.453Z,22.4
2016-12-29T07:22:31.041Z,22.45
2016-12-29T07:23:11.629Z,22.42
2016-12-29T07:23:52.213Z,22.43
2016-12-29T07:24:32.797Z,22.4
2016-12-29T07:25:13.383Z,22.4
2016-12-29T07:25:53.983Z,22.45
2016-12-29T07:26:34.580Z,22.4
2016-12-29T07:27:15.175Z,22.36
2016-12-29T07:27:55.772Z,22.45
2016-12-29T07:28:36.360Z,22.39
2016-12-29T07:29:16.945Z,22.42
2016-12-29T07:29:57.537Z,22.45
2016-12-29T07:30:38.120Z,22.4
2016-12-29T07:31:18.711Z,22.4
2016-12-29T07:31:59.315Z,22.51
2016-12-29T07:32:39.912Z,22.49
2016-12-29T07:33:20.504Z,22.43
2016-12-29T07:34:01.121Z,22.4
2016-12-29T07:34:41.709Z,22.45
2016-12-29T07:35:22.293Z,22.45
2016-12-29T07:36:02.892Z,22.49
2016-12-29T07:36:43.464Z,22.45
2016-12-29T07:37:24.042Z,22.37
2016-12-29T07:38:04.623Z,22.36
2016-12-29T07:38:45.228Z,22.39
2016-12-29T07:39:25.803Z,22.39
2016-12-29T07:40:06.392Z,22.52
2016-12-29T07:40:46.986Z,22.45
2016-12-29T07:41:27.608Z,22.42
2016-12-29T07:42:08.197Z,22.51
2016-12-29T07:42:48.796Z,22.46
2016-12-29T07:43:29.372Z,22.58
2016-12-29T07:44:09.962Z,22.46
2016-12-29T07:44:50.546Z,22.52
2016-12-29T07:45:31.137Z,22.52
2016-12-29T07:46:11.715Z,22.46
2016-12-29T07:46:52.304Z,22.51
2016-12-29T07:47:32.879Z,22.54
2016-12-29T07:48:13.467Z,22.51
2016-12-29T07:48:54.108Z,22.49
2016-12-29T07:49:34.707Z,22.52
2016-12-29T07:50:15.283Z,22.51
2016-12-29T07:50:55.877Z,22.52
2016-12-29T07:51:36.502Z,22.55
2016-12-29T07:52:17.057Z,22.54
2016-12-29T07:52:57.673Z,22.6
2016-12-29T07:53:38.277Z,22.55
2016-12-29T07:54:18.889Z,22.52
2016-12-29T07:54:59.488Z,22.51
2016-12-29T07:55:40.105Z,22.52
2016-12-29T07:56:20.692Z,22.51
2016-12-29T07:57:01.299Z,22.54
2016-12-29T07:57:41.886Z,22.51
2016-12-29T07:58:22.484Z,22.47
2016-12-29T07:59:03.109Z,22.51
2016-12-29T07:59:43.688Z,22.54
2016-12-29T08:00:24.304Z,22.47
2016-12-29T08:01:04.899Z,22.54
2016-12-29T08:01:45.489Z,22.52
2016-12-29T08:02:26.079Z,22.49
2016-12-29T08:03:06.665Z,22.51
2016-12-29T08:03:47.295Z,22.49
2016-12-29T08:04:27.887Z,22.54
2016-12-29T08:05:08.465Z,22.51
2016-12-29T08:05:49.058Z,22.51
2016-12-29T08:06:29.646Z,22.47
2016-12-29T08:07:10.272Z,22.52
2016-12-29T08:07:50.881Z,22.55
2016-12-29T08:08:31.479Z,22.51
2016-12-29T08:09:12.088Z,22.52
2016-12-29T08:09:52.681Z,22.6
2016-12-29T08:10:33.257Z,22.57
2016-12-29T08:11:13.841Z,22.55
2016-12-29T08:11:54.444Z,22.55
2016-12-29T08:12:35.023Z,22.52
2016-12-29T08:13:15.598Z,22.58
2016-12-29T08:13:56.182Z,22.6
2016-12-29T08:14:36.799Z,22.58
2016-12-29T08:15:17.407Z,22.57
2016-12-29T08:15:58.007Z,22.57
2016-12-29T08:16:38.598Z,22.61
2016-12-29T08:17:19.197Z,22.57
2016-12-29T08:17:59.793Z,22.54
2016-12-29T08:18:40.387Z,22.58
2016-12-29T08:19:20.999Z,22.55
2016-12-29T08:20:01.617Z,22.64
2016-12-29T08:20:42.213Z,22.57
2016-12-29T08:21:22.818Z,22.54
2016-12-29T08:22:03.421Z,22.57
2016-12-29T08:22:44.036Z,22.61
2016-12-29T08:23:24.619Z,22.62
2016-12-29T08:24:05.202Z,22.52
2016-12-29T08:24:45.800Z,22.64
2016-12-29T08:25:26.387Z,22.57
2016-12-29T08:26:06.966Z,22.61
2016-12-29T08:26:47.567Z,22.61
2016-12-29T08:27:28.163Z,22.62
2016-12-29T08:28:08.773Z,22.57
2016-12-29T08:28:49.368Z,22.58
2016-12-29T08:29:30.714Z,22.6
2016-12-29T08:30:10.609Z,22.54
2016-12-29T08:30:51.204Z,22.67
2016-12-29T08:31:31.788Z,22.65
2016-12-29T08:32:12.401Z,22.58
2016-12-29T08:32:53.004Z,22.55
2016-12-29T08:33:33.580Z,22.52
2016-12-29T08:34:14.184Z,22.64
2016-12-29T08:34:54.765Z,22.58
2016-12-29T08:35:35.347Z,22.64
2016-12-29T08:36:15.969Z,22.61
2016-12-29T08:36:56.565Z,22.6
2016-12-29T08:37:37.161Z,22.58
2016-12-29T08:38:17.771Z,22.62
2016-12-29T08:38:58.352Z,22.6
2016-12-29T08:39:38.963Z,22.62
2016-12-29T08:40:19.572Z,22.55
2016-12-29T08:41:00.170Z,22.65
2016-12-29T08:41:40.764Z,22.49
2016-12-29T08:42:21.361Z,22.55
2016-12-29T08:43:01.952Z,22.55
2016-12-29T08:43:42.559Z,22.57
2016-12-29T08:44:23.153Z,22.58